createdAt,value
2018-05-14T00:00:10.301Z,0.00
2018-05-14T00:01:10.430Z,0.00
2018-05-14T00:02:10.346Z,0.00
2018-05-14T00:03:10.441Z,0.00
2018-05-14T00:04:10.380Z,0.00
2018-05-14T00:05:11.472Z,0.00
2018-05-14T00:06:10.436Z,0.00
2018-05-14T00:07:10.572Z,0.00
2018-05-14T00:08:10.461Z,0.00
2018-05-14T00:09:10.586Z,0.00
2018-05-14T00:10:10.492Z,0.00
2018-05-14T00:11:10.593Z,0.00
2018-05-14T00:12:10.532Z,0.00
2018-05-14T00:13:10.607Z,0.00
2018-05-14T00:14:10.578Z,0.00
2018-05-14T00:15:10.614Z,0.00
2018-05-14T00:16:10.608Z,0.00
2018-05-14T00:17:10.728Z,0.00
2018-05-14T00:18:10.652Z,0.00
2018-05-14T00:19:10.752Z,0.00
2018-05-14T00:20:10.684Z,0.00
2018-05-14T00:21:10.756Z,0.00
2018-05-14T00:22:10.726Z,0.00
2018-05-14T00:23:10.767Z,0.00
2018-05-14T00:24:10.762Z,0.00
2018-05-14T00:25:11.802Z,0.00
2018-05-14T00:26:10.802Z,0.00
2018-05-14T00:27:10.897Z,0.00
2018-05-14T00:28:10.845Z,0.00
2018-05-14T00:29:10.908Z,0.00
2018-05-14T00:30:10.879Z,0.00
2018-05-14T00:31:10.919Z,0.00
2018-05-14T00:32:10.916Z,0.00
2018-05-14T00:33:11.105Z,0.00
2018-05-14T00:34:10.960Z,0.00
2018-05-14T00:35:11.047Z,0.00
2018-05-14T00:36:11.000Z,0.00
2018-05-14T00:37:11.064Z,0.00
2018-05-14T00:38:11.038Z,0.00
2018-05-14T00:39:11.074Z,0.00
2018-05-14T00:40:11.075Z,0.00
2018-05-14T00:41:11.190Z,0.00
2018-05-14T00:42:11.106Z,0.00
2018-05-14T00:43:11.210Z,0.00
2018-05-14T00:44:11.146Z,0.00
2018-05-14T00:45:11.215Z,0.00
2018-05-14T00:46:11.182Z,0.00
2018-05-14T00:47:11.230Z,0.00
2018-05-14T00:48:11.224Z,0.00
2018-05-14T00:49:11.347Z,0.00
2018-05-14T00:50:11.258Z,0.00
2018-05-14T00:51:12.382Z,0.00
2018-05-14T00:52:11.297Z,0.00
2018-05-14T00:53:11.373Z,0.00
2018-05-14T00:54:11.338Z,0.00
2018-05-14T00:55:11.385Z,0.00
2018-05-14T00:56:11.374Z,0.00
2018-05-14T00:57:11.502Z,0.00
2018-05-14T00:58:11.410Z,0.00
2018-05-14T00:59:11.516Z,0.00
2018-05-14T01:00:11.448Z,0.00
2018-05-14T01:01:11.528Z,0.00
2018-05-14T01:02:11.491Z,0.00
2018-05-14T01:03:11.540Z,0.00
2018-05-14T01:04:11.524Z,0.00
2018-05-14T01:05:11.653Z,0.00
2018-05-14T01:06:11.562Z,0.00
2018-05-14T01:07:11.703Z,0.00
2018-05-14T01:08:11.608Z,0.00
2018-05-14T01:09:11.717Z,0.00
2018-05-14T01:10:11.652Z,0.00
2018-05-14T01:11:11.694Z,0.00
2018-05-14T01:12:11.678Z,0.00
2018-05-14T01:13:11.809Z,0.00
2018-05-14T01:14:11.716Z,0.00
2018-05-14T01:15:11.826Z,0.00
2018-05-14T01:16:11.761Z,0.00
2018-05-14T01:17:11.836Z,0.00
2018-05-14T01:18:11.793Z,0.00
2018-05-14T01:19:11.850Z,0.00
2018-05-14T01:20:11.830Z,0.00
2018-05-14T01:21:11.984Z,0.00
2018-05-14T01:22:12.007Z,0.00
2018-05-14T01:23:11.897Z,0.00
2018-05-14T01:24:11.983Z,0.00
2018-05-14T01:25:11.928Z,0.00
2018-05-14T01:26:11.992Z,0.00
2018-05-14T01:27:11.970Z,0.00
2018-05-14T01:28:12.064Z,0.00
2018-05-14T01:29:12.001Z,0.00
2018-05-14T01:30:12.166Z,0.00
2018-05-14T01:31:12.049Z,0.00
2018-05-14T01:32:12.170Z,0.00
2018-05-14T01:33:12.084Z,0.00
2018-05-14T01:34:12.147Z,0.00
2018-05-14T01:35:12.125Z,0.00
2018-05-14T01:36:12.163Z,0.00
2018-05-14T01:37:12.154Z,0.00
2018-05-14T01:38:12.280Z,0.00
2018-05-14T01:39:12.197Z,0.00
2018-05-14T01:40:12.306Z,0.00
2018-05-14T01:41:12.239Z,0.00
2018-05-14T01:42:12.303Z,0.00
2018-05-14T01:43:12.295Z,0.00
2018-05-14T01:44:12.318Z,0.00
2018-05-14T01:45:12.312Z,0.00
2018-05-14T01:46:12.432Z,0.00
2018-05-14T01:47:12.376Z,0.00
2018-05-14T01:48:12.492Z,0.00
2018-05-14T01:49:12.403Z,0.00
2018-05-14T01:50:12.958Z,0.00
2018-05-14T01:51:12.447Z,0.00
2018-05-14T01:52:12.505Z,0.00
2018-05-14T01:53:12.460Z,0.00
2018-05-14T01:54:12.605Z,0.00
2018-05-14T01:55:12.518Z,0.00
2018-05-14T01:56:12.605Z,0.00
2018-05-14T01:57:12.545Z,0.00
2018-05-14T01:58:12.612Z,0.00
2018-05-14T01:59:12.580Z,0.00
2018-05-14T02:00:12.625Z,0.00
2018-05-14T02:01:12.635Z,0.00
2018-05-14T02:02:12.740Z,0.00
2018-05-14T02:03:12.647Z,0.00
2018-05-14T02:04:12.756Z,0.00
2018-05-14T02:05:12.683Z,0.00
2018-05-14T02:06:12.773Z,0.00
2018-05-14T02:07:12.732Z,0.00
2018-05-14T02:08:12.780Z,0.00
2018-05-14T02:09:12.763Z,0.00
2018-05-14T02:10:12.909Z,0.00
2018-05-14T02:11:12.799Z,0.00
2018-05-14T02:12:12.906Z,0.00
2018-05-14T02:13:12.880Z,0.00
2018-05-14T02:14:12.920Z,0.00
2018-05-14T02:15:12.872Z,0.00
2018-05-14T02:16:12.934Z,0.00
2018-05-14T02:17:12.920Z,0.00
2018-05-14T02:18:13.050Z,0.00
2018-05-14T02:19:12.992Z,0.00
2018-05-14T02:20:13.062Z,0.00
2018-05-14T02:21:12.986Z,0.00
2018-05-14T02:22:13.076Z,0.00
2018-05-14T02:23:13.026Z,0.00
2018-05-14T02:24:13.087Z,0.00
2018-05-14T02:25:13.063Z,0.00
2018-05-14T02:26:13.208Z,0.00
2018-05-14T02:27:13.109Z,0.00
2018-05-14T02:28:13.216Z,0.00
2018-05-14T02:29:13.138Z,0.00
2018-05-14T02:30:13.238Z,0.00
2018-05-14T02:31:13.185Z,0.00
2018-05-14T02:32:13.240Z,0.00
2018-05-14T02:33:13.221Z,0.00
2018-05-14T02:34:13.253Z,0.00
2018-05-14T02:35:13.258Z,0.00
2018-05-14T02:36:13.369Z,0.00
2018-05-14T02:37:13.293Z,0.00
2018-05-14T02:38:13.393Z,0.00
2018-05-14T02:39:13.327Z,0.00
2018-05-14T02:40:13.394Z,0.00
2018-05-14T02:41:13.362Z,0.00
2018-05-14T02:42:13.408Z,0.00
2018-05-14T02:43:13.418Z,0.00
2018-05-14T02:44:13.524Z,0.00
2018-05-14T02:45:13.441Z,0.00
2018-05-14T02:46:13.538Z,0.00
2018-05-14T02:47:13.485Z,0.00
2018-05-14T02:48:13.552Z,0.00
2018-05-14T02:49:13.561Z,0.00
2018-05-14T02:50:13.537Z,0.00
2018-05-14T02:51:13.675Z,0.00
2018-05-14T02:52:13.589Z,0.00
2018-05-14T02:53:13.685Z,0.00
2018-05-14T02:54:13.616Z,0.00
2018-05-14T02:55:13.633Z,0.00
2018-05-14T02:56:13.707Z,0.00
2018-05-14T02:57:13.686Z,0.00
2018-05-14T02:58:13.722Z,0.00
2018-05-14T02:59:13.710Z,0.00
2018-05-14T03:00:13.852Z,0.00
2018-05-14T03:01:13.749Z,0.00
2018-05-14T03:02:13.867Z,0.00
2018-05-14T03:03:13.785Z,0.00
2018-05-14T03:04:13.871Z,0.00
2018-05-14T03:05:13.822Z,0.00
2018-05-14T03:06:13.872Z,0.00
2018-05-14T03:07:13.857Z,0.00
2018-05-14T03:08:13.986Z,0.00
2018-05-14T03:09:13.899Z,0.00
2018-05-14T03:10:13.999Z,0.00
2018-05-14T03:11:13.933Z,0.00
2018-05-14T03:12:14.019Z,0.00
2018-05-14T03:13:14.006Z,0.00
2018-05-14T03:14:14.028Z,0.00
2018-05-14T03:15:14.013Z,0.00
2018-05-14T03:16:14.166Z,0.00
2018-05-14T03:17:14.049Z,0.00
2018-05-14T03:18:14.156Z,0.00
2018-05-14T03:19:14.093Z,0.00
2018-05-14T03:20:14.167Z,0.00
2018-05-14T03:21:14.122Z,0.00
2018-05-14T03:22:14.183Z,0.00
2018-05-14T03:23:14.163Z,0.00
2018-05-14T03:24:14.364Z,0.00
2018-05-14T03:25:14.204Z,0.00
2018-05-14T03:26:14.344Z,0.00
2018-05-14T03:27:14.252Z,0.00
2018-05-14T03:28:14.391Z,0.00
2018-05-14T03:29:14.273Z,0.00
2018-05-14T03:30:14.337Z,0.00
2018-05-14T03:31:14.342Z,0.00
2018-05-14T03:32:14.331Z,0.00
2018-05-14T03:33:14.458Z,0.00
2018-05-14T03:34:14.368Z,0.00
2018-05-14T03:35:15.498Z,0.00
2018-05-14T03:36:14.415Z,0.00
2018-05-14T03:37:14.426Z,0.00
2018-05-14T03:38:14.443Z,0.00
2018-05-14T03:39:15.527Z,0.00
2018-05-14T03:40:14.491Z,0.00
2018-05-14T03:41:14.642Z,0.00
2018-05-14T03:42:14.535Z,0.00
2018-05-14T03:43:14.649Z,0.00
2018-05-14T03:44:14.569Z,0.00
2018-05-14T03:45:15.669Z,0.00
2018-05-14T03:46:14.644Z,0.00
2018-05-14T03:47:14.691Z,0.00
2018-05-14T03:48:14.652Z,0.00
2018-05-14T03:49:14.795Z,0.00
2018-05-14T03:50:14.674Z,0.00
2018-05-14T03:51:14.818Z,0.00
2018-05-14T03:52:14.731Z,0.00
2018-05-14T03:53:14.819Z,0.00
2018-05-14T03:54:14.749Z,0.00
2018-05-14T03:55:14.841Z,0.00
2018-05-14T03:56:14.785Z,0.00
2018-05-14T03:57:14.931Z,0.00
2018-05-14T03:58:14.944Z,0.00
2018-05-14T03:59:15.957Z,0.00
2018-05-14T04:00:14.859Z,0.00
2018-05-14T04:01:14.945Z,0.00
2018-05-14T04:02:14.938Z,0.00
2018-05-14T04:03:15.990Z,0.00
2018-05-14T04:04:14.939Z,0.00
2018-05-14T04:05:16.001Z,0.00
2018-05-14T04:06:14.979Z,0.00
2018-05-14T04:07:15.088Z,0.00
2018-05-14T04:08:15.008Z,0.00
2018-05-14T04:09:15.034Z,0.00
2018-05-14T04:10:15.047Z,0.00
2018-05-14T04:11:15.113Z,0.00
2018-05-14T04:12:15.087Z,0.00
2018-05-14T04:13:15.126Z,0.00
2018-05-14T04:14:15.121Z,0.00
2018-05-14T04:15:15.143Z,0.00
2018-05-14T04:16:15.164Z,0.00
2018-05-14T04:17:15.256Z,0.00
2018-05-14T04:18:15.197Z,0.00
2018-05-14T04:19:15.284Z,0.00
2018-05-14T04:20:15.236Z,0.00
2018-05-14T04:21:15.285Z,0.00
2018-05-14T04:22:15.277Z,0.00
2018-05-14T04:23:15.395Z,0.00
2018-05-14T04:24:15.309Z,0.00
2018-05-14T04:25:16.433Z,0.00
2018-05-14T04:26:15.345Z,0.00
2018-05-14T04:27:15.422Z,0.00
2018-05-14T04:28:15.382Z,0.00
2018-05-14T04:29:15.434Z,0.00
2018-05-14T04:30:15.475Z,0.00
2018-05-14T04:31:15.562Z,0.00
2018-05-14T04:32:15.458Z,0.00
2018-05-14T04:33:15.591Z,0.00
2018-05-14T04:34:15.521Z,0.00
2018-05-14T04:35:16.676Z,0.00
2018-05-14T04:36:15.589Z,0.00
2018-05-14T04:37:15.553Z,0.00
2018-05-14T04:38:15.595Z,0.00
2018-05-14T04:39:15.595Z,0.00
2018-05-14T04:40:15.716Z,0.00
2018-05-14T04:41:15.629Z,0.00
2018-05-14T04:42:15.724Z,0.00
2018-05-14T04:43:15.669Z,0.00
2018-05-14T04:44:15.741Z,0.00
2018-05-14T04:45:15.709Z,0.00
2018-05-14T04:46:15.755Z,0.00
2018-05-14T04:47:15.742Z,0.00
2018-05-14T04:48:15.869Z,0.00
2018-05-14T04:49:15.792Z,0.00
2018-05-14T04:50:15.878Z,0.00
2018-05-14T04:51:15.958Z,0.00
2018-05-14T04:52:15.894Z,0.00
2018-05-14T04:53:15.861Z,0.00
2018-05-14T04:54:16.949Z,0.00
2018-05-14T04:55:16.041Z,0.00
2018-05-14T04:56:16.036Z,0.00
2018-05-14T04:57:15.946Z,0.00
2018-05-14T04:58:16.037Z,0.00
2018-05-14T04:59:15.988Z,0.00
2018-05-14T05:00:16.059Z,0.00
2018-05-14T05:01:16.015Z,0.00
2018-05-14T05:02:17.111Z,0.00
2018-05-14T05:03:16.044Z,0.00
2018-05-14T05:04:16.224Z,0.00
2018-05-14T05:05:16.090Z,0.00
2018-05-14T05:06:16.212Z,0.00
2018-05-14T05:07:16.126Z,0.00
2018-05-14T05:08:17.236Z,0.00
2018-05-14T05:09:16.163Z,0.00
2018-05-14T05:10:16.280Z,0.00
2018-05-14T05:11:16.198Z,0.00
2018-05-14T05:12:16.354Z,0.00
2018-05-14T05:13:16.246Z,0.00
2018-05-14T05:14:16.348Z,0.00
2018-05-14T05:15:16.280Z,0.00
2018-05-14T05:16:18.404Z,0.00
2018-05-14T05:17:16.431Z,0.00
2018-05-14T05:18:16.381Z,5.63
2018-05-14T05:19:16.350Z,5.63
2018-05-14T05:20:16.496Z,5.63
2018-05-14T05:21:16.390Z,0.00
2018-05-14T05:22:16.500Z,0.00
2018-05-14T05:23:16.436Z,0.00
2018-05-14T05:24:16.508Z,0.00
2018-05-14T05:25:16.467Z,0.00
2018-05-14T05:26:16.521Z,0.00
2018-05-14T05:27:16.509Z,5.63
2018-05-14T05:28:16.712Z,5.63
2018-05-14T05:29:16.537Z,5.63
2018-05-14T05:30:16.654Z,0.00
2018-05-14T05:31:16.584Z,5.63
2018-05-14T05:32:16.664Z,5.63
2018-05-14T05:33:16.628Z,5.63
2018-05-14T05:34:16.677Z,5.63
2018-05-14T05:35:16.654Z,5.63
2018-05-14T05:36:16.795Z,5.63
2018-05-14T05:37:16.716Z,5.63
2018-05-14T05:38:16.806Z,5.63
2018-05-14T05:39:16.744Z,5.63
2018-05-14T05:40:16.904Z,5.63
2018-05-14T05:41:16.799Z,5.63
2018-05-14T05:42:16.802Z,5.63
2018-05-14T05:43:16.815Z,5.63
2018-05-14T05:44:16.949Z,5.63
2018-05-14T05:45:16.868Z,5.63
2018-05-14T05:46:16.959Z,5.63
2018-05-14T05:47:16.899Z,5.63
2018-05-14T05:48:16.972Z,5.63
2018-05-14T05:49:16.923Z,5.63
2018-05-14T05:50:18.009Z,5.63
2018-05-14T05:51:16.978Z,5.63
2018-05-14T05:52:19.106Z,11.25
2018-05-14T05:53:17.007Z,11.25
2018-05-14T05:54:17.119Z,11.25
2018-05-14T05:55:17.059Z,11.25
2018-05-14T05:56:17.135Z,11.25
2018-05-14T05:57:17.136Z,11.25
2018-05-14T05:58:17.123Z,11.25
2018-05-14T05:59:17.147Z,11.25
2018-05-14T06:00:17.135Z,11.25
2018-05-14T06:01:17.353Z,11.25
2018-05-14T06:02:17.174Z,5.63
2018-05-14T06:03:17.193Z,5.63
2018-05-14T06:04:17.220Z,5.63
2018-05-14T06:05:18.317Z,11.25
2018-05-14T06:06:17.256Z,11.25
2018-05-14T06:07:27.856Z,16.88
2018-05-14T06:08:17.291Z,16.88
2018-05-14T06:09:17.418Z,16.88
2018-05-14T06:10:17.332Z,11.25
2018-05-14T06:11:17.437Z,11.25
2018-05-14T06:12:17.383Z,11.25
2018-05-14T06:13:17.444Z,16.88
2018-05-14T06:14:17.405Z,16.88
2018-05-14T06:15:18.496Z,16.88
2018-05-14T06:16:17.445Z,16.88
2018-05-14T06:17:17.569Z,16.88
2018-05-14T06:18:17.502Z,16.88
2018-05-14T06:19:17.583Z,16.88
2018-05-14T06:20:17.523Z,11.25
2018-05-14T06:21:17.596Z,11.25
2018-05-14T06:22:17.564Z,16.88
2018-05-14T06:23:17.613Z,16.88
2018-05-14T06:24:17.599Z,16.88
2018-05-14T06:25:19.699Z,16.88
2018-05-14T06:26:17.646Z,16.88
2018-05-14T06:27:17.744Z,16.88
2018-05-14T06:28:17.676Z,16.88
2018-05-14T06:29:17.748Z,16.88
2018-05-14T06:30:17.720Z,16.88
2018-05-14T06:31:17.767Z,11.25
2018-05-14T06:32:17.758Z,11.25
2018-05-14T06:33:17.882Z,11.25
2018-05-14T06:34:17.797Z,11.25
2018-05-14T06:35:18.944Z,11.25
2018-05-14T06:36:17.838Z,11.25
2018-05-14T06:37:18.016Z,11.25
2018-05-14T06:38:17.875Z,11.25
2018-05-14T06:39:17.918Z,16.88
2018-05-14T06:40:17.914Z,16.88
2018-05-14T06:41:18.035Z,16.88
2018-05-14T06:42:17.953Z,16.88
2018-05-14T06:43:18.046Z,16.88
2018-05-14T06:44:18.132Z,16.88
2018-05-14T06:45:18.012Z,16.88
2018-05-14T06:46:18.741Z,16.88
2018-05-14T06:47:18.050Z,22.50
2018-05-14T06:48:18.183Z,16.88
2018-05-14T06:49:18.093Z,11.25
2018-05-14T06:50:18.295Z,11.25
2018-05-14T06:51:18.137Z,11.25
2018-05-14T06:52:18.312Z,16.88
2018-05-14T06:53:18.175Z,16.88
2018-05-14T06:54:18.325Z,16.88
2018-05-14T06:55:18.213Z,22.50
2018-05-14T06:56:18.338Z,16.88
2018-05-14T06:57:18.448Z,16.88
2018-05-14T06:58:19.476Z,16.88
2018-05-14T06:59:18.330Z,16.88
2018-05-14T07:00:18.570Z,16.88
2018-05-14T07:01:18.437Z,16.88
2018-05-14T07:02:18.532Z,11.25
2018-05-14T07:03:18.430Z,11.25
2018-05-14T07:04:18.491Z,11.25
2018-05-14T07:05:18.442Z,16.88
2018-05-14T07:06:18.605Z,22.50
2018-05-14T07:07:18.680Z,16.88
2018-05-14T07:08:18.623Z,16.88
2018-05-14T07:09:18.536Z,16.88
2018-05-14T07:10:18.636Z,16.88
2018-05-14T07:11:18.691Z,22.50
2018-05-14T07:12:18.649Z,22.50
2018-05-14T07:13:18.607Z,22.50
2018-05-14T07:14:18.672Z,16.88
2018-05-14T07:15:18.737Z,16.88
2018-05-14T07:16:18.672Z,22.50
2018-05-14T07:17:18.674Z,22.50
2018-05-14T07:18:19.859Z,22.50
2018-05-14T07:19:18.751Z,22.50
2018-05-14T07:20:18.803Z,28.13
2018-05-14T07:21:18.728Z,22.50
2018-05-14T07:22:19.063Z,22.50
2018-05-14T07:23:18.835Z,22.50
2018-05-14T07:24:18.935Z,22.50
2018-05-14T07:25:18.809Z,22.50
2018-05-14T07:26:19.083Z,22.50
2018-05-14T07:27:18.859Z,22.50
2018-05-14T07:28:20.032Z,22.50
2018-05-14T07:29:19.041Z,22.50
2018-05-14T07:30:19.077Z,28.13
2018-05-14T07:31:19.005Z,22.50
2018-05-14T07:32:19.204Z,22.50
2018-05-14T07:33:18.974Z,22.50
2018-05-14T07:34:19.099Z,22.50
2018-05-14T07:35:19.014Z,22.50
2018-05-14T07:36:19.291Z,22.50
2018-05-14T07:37:19.045Z,22.50
2018-05-14T07:38:19.221Z,28.13
2018-05-14T07:39:19.091Z,28.13
2018-05-14T07:40:19.133Z,22.50
2018-05-14T07:41:19.126Z,16.88
2018-05-14T07:42:19.249Z,16.88
2018-05-14T07:43:19.167Z,22.50
2018-05-14T07:44:19.388Z,22.50
2018-05-14T07:45:19.217Z,22.50
2018-05-14T07:46:19.381Z,22.50
2018-05-14T07:47:19.266Z,28.13
2018-05-14T07:48:19.394Z,33.75
2018-05-14T07:49:19.292Z,39.38
2018-05-14T07:50:19.403Z,33.75
2018-05-14T07:51:19.366Z,33.75
2018-05-14T07:52:20.441Z,33.75
2018-05-14T07:53:19.374Z,28.13
2018-05-14T07:54:19.599Z,28.13
2018-05-14T07:55:19.571Z,33.75
2018-05-14T07:56:19.539Z,33.75
2018-05-14T07:57:19.656Z,33.75
2018-05-14T07:58:19.473Z,33.75
2018-05-14T07:59:19.567Z,28.13
2018-05-14T08:00:19.615Z,28.13
2018-05-14T08:01:19.592Z,28.13
2018-05-14T08:02:19.548Z,22.50
2018-05-14T08:03:19.614Z,28.13
2018-05-14T08:04:19.596Z,33.75
2018-05-14T08:05:19.704Z,33.75
2018-05-14T08:06:19.621Z,33.75
2018-05-14T08:07:19.748Z,33.75
2018-05-14T08:08:19.657Z,39.38
2018-05-14T08:09:19.856Z,39.38
2018-05-14T08:10:19.701Z,33.75
2018-05-14T08:11:19.744Z,33.75
2018-05-14T08:12:19.723Z,33.75
2018-05-14T08:13:20.783Z,45.00
2018-05-14T08:14:19.769Z,50.63
2018-05-14T08:15:20.897Z,56.25
2018-05-14T08:16:19.829Z,56.25
2018-05-14T08:17:19.884Z,56.25
2018-05-14T08:18:19.847Z,61.88
2018-05-14T08:19:20.004Z,56.25
2018-05-14T08:20:19.889Z,50.63
2018-05-14T08:21:20.039Z,50.63
2018-05-14T08:22:19.917Z,50.63
2018-05-14T08:23:19.939Z,56.25
2018-05-14T08:24:20.453Z,50.63
2018-05-14T08:25:19.988Z,45.00
2018-05-14T08:26:20.150Z,50.63
2018-05-14T08:27:20.023Z,56.25
2018-05-14T08:28:20.161Z,61.88
2018-05-14T08:29:20.058Z,50.63
2018-05-14T08:30:20.179Z,50.63
2018-05-14T08:31:20.098Z,56.25
2018-05-14T08:32:20.193Z,56.25
2018-05-14T08:33:20.136Z,61.88
2018-05-14T08:34:20.203Z,61.88
2018-05-14T08:35:20.179Z,61.88
2018-05-14T08:36:20.326Z,61.88
2018-05-14T08:37:20.221Z,67.50
2018-05-14T08:38:20.331Z,61.88
2018-05-14T08:39:20.258Z,61.88
2018-05-14T08:40:20.346Z,61.88
2018-05-14T08:41:20.306Z,56.25
2018-05-14T08:42:20.450Z,61.88
2018-05-14T08:43:20.340Z,56.25
2018-05-14T08:44:20.477Z,61.88
2018-05-14T08:45:20.381Z,67.50
2018-05-14T08:46:20.510Z,61.88
2018-05-14T08:47:20.423Z,67.50
2018-05-14T08:48:20.507Z,73.13
2018-05-14T08:49:20.484Z,73.13
2018-05-14T08:50:20.614Z,73.13
2018-05-14T08:51:20.502Z,67.50
2018-05-14T08:52:20.624Z,67.50
2018-05-14T08:53:20.541Z,56.25
2018-05-14T08:54:20.735Z,61.88
2018-05-14T08:55:20.582Z,61.88
2018-05-14T08:56:20.650Z,61.88
2018-05-14T08:57:20.627Z,67.50
2018-05-14T08:58:20.780Z,50.63
2018-05-14T08:59:20.725Z,50.63
2018-05-14T09:00:20.782Z,50.63
2018-05-14T09:01:20.809Z,45.00
2018-05-14T09:02:20.907Z,50.63
2018-05-14T09:03:20.748Z,56.25
2018-05-14T09:04:20.804Z,56.25
2018-05-14T09:05:20.805Z,67.50
2018-05-14T09:06:21.136Z,61.88
2018-05-14T09:07:20.831Z,56.25
2018-05-14T09:08:20.933Z,56.25
2018-05-14T09:09:20.876Z,56.25
2018-05-14T09:10:20.945Z,61.88
2018-05-14T09:11:20.952Z,56.25
2018-05-14T09:12:20.962Z,56.25
2018-05-14T09:13:20.959Z,56.25
2018-05-14T09:14:21.076Z,56.25
2018-05-14T09:15:21.028Z,56.25
2018-05-14T09:16:21.092Z,50.63
2018-05-14T09:17:21.045Z,50.63
2018-05-14T09:18:21.102Z,50.63
2018-05-14T09:19:21.193Z,50.63
2018-05-14T09:20:21.227Z,45.00
2018-05-14T09:21:21.124Z,56.25
2018-05-14T09:22:21.232Z,61.88
2018-05-14T09:23:21.169Z,61.88
2018-05-14T09:24:21.243Z,61.88
2018-05-14T09:25:21.214Z,56.25
2018-05-14T09:26:22.281Z,56.25
2018-05-14T09:27:21.256Z,56.25
2018-05-14T09:28:21.373Z,56.25
2018-05-14T09:29:21.311Z,56.25
2018-05-14T09:30:21.388Z,56.25
2018-05-14T09:31:21.394Z,50.63
2018-05-14T09:32:21.406Z,50.63
2018-05-14T09:33:21.388Z,50.63
2018-05-14T09:34:21.513Z,56.25
2018-05-14T09:35:21.427Z,56.25
2018-05-14T09:36:21.524Z,56.25
2018-05-14T09:37:21.614Z,67.50
2018-05-14T09:38:21.538Z,56.25
2018-05-14T09:39:21.536Z,61.88
2018-05-14T09:40:21.651Z,67.50
2018-05-14T09:41:21.559Z,56.25
2018-05-14T09:42:22.693Z,56.25
2018-05-14T09:43:21.605Z,61.88
2018-05-14T09:44:21.678Z,73.13
2018-05-14T09:45:21.646Z,73.13
2018-05-14T09:46:21.697Z,78.75
2018-05-14T09:47:21.688Z,73.13
2018-05-14T09:48:21.880Z,67.50
2018-05-14T09:49:21.737Z,67.50
2018-05-14T09:50:21.889Z,67.50
2018-05-14T09:51:21.795Z,67.50
2018-05-14T09:52:22.856Z,61.88
2018-05-14T09:53:21.825Z,61.88
2018-05-14T09:54:21.952Z,67.50
2018-05-14T09:55:21.862Z,73.13
2018-05-14T09:56:21.978Z,73.13
2018-05-14T09:57:21.987Z,67.50
2018-05-14T09:58:21.976Z,67.50
2018-05-14T09:59:21.948Z,73.13
2018-05-14T10:00:22.089Z,73.13
2018-05-14T10:01:22.010Z,73.13
2018-05-14T10:02:22.101Z,73.13
2018-05-14T10:03:22.039Z,73.13
2018-05-14T10:04:22.118Z,78.75
2018-05-14T10:05:22.083Z,84.38
2018-05-14T10:06:22.129Z,84.38
2018-05-14T10:07:22.125Z,84.38
2018-05-14T10:08:22.245Z,90.00
2018-05-14T10:09:22.880Z,84.38
2018-05-14T10:10:22.255Z,78.75
2018-05-14T10:11:22.211Z,73.13
2018-05-14T10:12:22.272Z,73.13
2018-05-14T10:13:22.256Z,61.88
2018-05-14T10:14:22.393Z,67.50
2018-05-14T10:15:23.416Z,67.50
2018-05-14T10:16:22.328Z,67.50
2018-05-14T10:17:22.407Z,67.50
2018-05-14T10:18:22.367Z,73.13
2018-05-14T10:19:22.422Z,67.50
2018-05-14T10:20:22.412Z,73.13
2018-05-14T10:21:22.449Z,73.13
2018-05-14T10:22:22.459Z,67.50
2018-05-14T10:23:22.546Z,56.25
2018-05-14T10:24:22.503Z,61.88
2018-05-14T10:25:23.590Z,67.50
2018-05-14T10:26:22.594Z,56.25
2018-05-14T10:27:22.678Z,56.25
2018-05-14T10:28:22.594Z,56.25
2018-05-14T10:29:22.696Z,56.25
2018-05-14T10:30:22.640Z,56.25
2018-05-14T10:31:22.700Z,50.63
2018-05-14T10:32:22.684Z,50.63
2018-05-14T10:33:22.822Z,56.25
2018-05-14T10:34:22.735Z,67.50
2018-05-14T10:35:22.840Z,67.50
2018-05-14T10:36:22.834Z,61.88
2018-05-14T10:37:22.795Z,61.88
2018-05-14T10:38:22.848Z,67.50
2018-05-14T10:39:22.851Z,73.13
2018-05-14T10:40:22.964Z,78.75
2018-05-14T10:41:22.886Z,73.13
2018-05-14T10:42:22.911Z,73.13
2018-05-14T10:43:22.930Z,67.50
2018-05-14T10:44:22.992Z,67.50
2018-05-14T10:45:22.975Z,73.13
2018-05-14T10:46:23.109Z,73.13
2018-05-14T10:47:23.023Z,73.13
2018-05-14T10:48:23.125Z,73.13
2018-05-14T10:49:23.067Z,78.75
2018-05-14T10:50:23.132Z,84.38
2018-05-14T10:51:23.111Z,95.63
2018-05-14T10:52:24.183Z,95.63
2018-05-14T10:53:23.157Z,106.88
2018-05-14T10:54:23.259Z,95.63
2018-05-14T10:55:23.218Z,84.38
2018-05-14T10:56:23.278Z,84.38
2018-05-14T10:57:23.251Z,78.75
2018-05-14T10:58:23.391Z,73.13
2018-05-14T10:59:23.292Z,78.75
2018-05-14T11:00:23.405Z,84.38
2018-05-14T11:01:23.337Z,84.38
2018-05-14T11:02:23.421Z,84.38
2018-05-14T11:03:23.387Z,90.00
2018-05-14T11:04:23.553Z,95.63
2018-05-14T11:05:23.465Z,101.25
2018-05-14T11:06:23.550Z,101.25
2018-05-14T11:07:23.473Z,101.25
2018-05-14T11:08:23.571Z,101.25
2018-05-14T11:09:23.543Z,106.88
2018-05-14T11:10:23.575Z,101.25
2018-05-14T11:11:23.567Z,123.75
2018-05-14T11:12:23.724Z,118.13
2018-05-14T11:13:23.610Z,101.25
2018-05-14T11:14:23.698Z,112.50
2018-05-14T11:15:23.659Z,101.25
2018-05-14T11:16:23.707Z,90.00
2018-05-14T11:17:23.703Z,101.25
2018-05-14T11:18:23.827Z,118.13
2018-05-14T11:19:23.777Z,118.13
2018-05-14T11:20:23.773Z,106.88
2018-05-14T11:21:23.798Z,106.88
2018-05-14T11:22:23.874Z,106.88
2018-05-14T11:23:23.845Z,112.50
2018-05-14T11:24:23.966Z,112.50
2018-05-14T11:25:23.894Z,118.13
2018-05-14T11:26:23.920Z,118.13
2018-05-14T11:27:23.936Z,112.50
2018-05-14T11:28:23.993Z,118.13
2018-05-14T11:29:23.993Z,135.00
2018-05-14T11:30:24.122Z,123.75
2018-05-14T11:31:24.030Z,95.63
2018-05-14T11:32:25.152Z,123.75
2018-05-14T11:33:24.077Z,106.88
2018-05-14T11:34:25.159Z,118.13
2018-05-14T11:35:24.168Z,112.50
2018-05-14T11:36:24.247Z,118.13
2018-05-14T11:37:24.167Z,123.75
2018-05-14T11:38:24.261Z,129.38
2018-05-14T11:39:24.216Z,123.75
2018-05-14T11:40:24.273Z,118.13
2018-05-14T11:41:24.264Z,118.13
2018-05-14T11:42:24.293Z,118.13
2018-05-14T11:43:24.317Z,118.13
2018-05-14T11:44:24.403Z,112.50
2018-05-14T11:45:24.354Z,106.88
2018-05-14T11:46:24.613Z,106.88
2018-05-14T11:47:24.404Z,118.13
2018-05-14T11:48:24.534Z,118.13
2018-05-14T11:49:24.453Z,118.13
2018-05-14T11:50:24.668Z,118.13
2018-05-14T11:51:24.503Z,118.13
2018-05-14T11:52:24.577Z,129.38
2018-05-14T11:53:24.544Z,135.00
2018-05-14T11:54:24.675Z,129.38
2018-05-14T11:55:24.614Z,118.13
2018-05-14T11:56:25.716Z,106.88
2018-05-14T11:57:24.657Z,101.25
2018-05-14T11:58:24.801Z,112.50
2018-05-14T11:59:24.696Z,123.75
2018-05-14T12:00:24.813Z,129.38
2018-05-14T12:01:24.821Z,129.38
2018-05-14T12:02:24.775Z,129.38
2018-05-14T12:03:24.969Z,123.75
2018-05-14T12:04:24.833Z,129.38
2018-05-14T12:05:25.084Z,135.00
2018-05-14T12:06:24.900Z,129.38
2018-05-14T12:07:26.053Z,135.00
2018-05-14T12:08:24.935Z,135.00
2018-05-14T12:09:26.107Z,135.00
2018-05-14T12:10:24.956Z,140.63
2018-05-14T12:11:25.090Z,146.25
2018-05-14T12:12:25.000Z,151.88
2018-05-14T12:13:25.189Z,151.88
2018-05-14T12:14:25.064Z,140.63
2018-05-14T12:15:25.228Z,135.00
2018-05-14T12:16:25.145Z,135.00
2018-05-14T12:17:25.250Z,135.00
2018-05-14T12:18:25.166Z,135.00
2018-05-14T12:19:25.246Z,140.63
2018-05-14T12:20:25.194Z,146.25
2018-05-14T12:21:25.471Z,146.25
2018-05-14T12:22:25.253Z,146.25
2018-05-14T12:23:26.412Z,151.88
2018-05-14T12:24:25.298Z,151.88
2018-05-14T12:25:25.327Z,151.88
2018-05-14T12:26:25.553Z,151.88
2018-05-14T12:27:25.377Z,151.88
2018-05-14T12:28:25.514Z,151.88
2018-05-14T12:29:25.422Z,151.88
2018-05-14T12:30:25.527Z,157.50
2018-05-14T12:31:25.466Z,163.13
2018-05-14T12:32:25.658Z,168.75
2018-05-14T12:33:25.539Z,168.75
2018-05-14T12:34:25.652Z,163.13
2018-05-14T12:35:25.576Z,157.50
2018-05-14T12:36:25.664Z,157.50
2018-05-14T12:37:25.709Z,157.50
2018-05-14T12:38:25.778Z,157.50
2018-05-14T12:39:25.666Z,163.13
2018-05-14T12:40:25.808Z,157.50
2018-05-14T12:41:25.714Z,157.50
2018-05-14T12:42:25.806Z,157.50
2018-05-14T12:43:25.765Z,163.13
2018-05-14T12:44:25.922Z,163.13
2018-05-14T12:45:25.817Z,163.13
2018-05-14T12:46:25.998Z,163.13
2018-05-14T12:47:25.866Z,163.13
2018-05-14T12:48:26.048Z,163.13
2018-05-14T12:49:25.917Z,168.75
2018-05-14T12:50:26.077Z,157.50
2018-05-14T12:51:25.971Z,163.13
2018-05-14T12:52:26.084Z,157.50
2018-05-14T12:53:26.016Z,163.13
2018-05-14T12:54:26.198Z,163.13
2018-05-14T12:55:26.078Z,163.13
2018-05-14T12:56:26.207Z,163.13
2018-05-14T12:57:26.121Z,168.75
2018-05-14T12:58:26.214Z,174.38
2018-05-14T12:59:26.172Z,174.38
2018-05-14T13:00:26.200Z,174.38